AA4130 / N687JS 7700 Squawk Report (19th of January, 2020)

Aircraft E145 Reg No. N687JS Age N/A
Model ERJ-145 Jet engines 2 First flight 09-04
Registered 03-15 Rollout 08-04 Delivered 15-09-04
Construction No. 14500846 Line No. N/A Series LR
ADSHEX A91E11 Airline name American Eagle Airlines Owner ExpressJet Airlines
Airfield based Dallas-Fort Worth~TX~N First tracked 2018-08-15 23:48:00

Flight history for N687JS

Route Flight No Date Playback
Dallas Fort Worth (DFW) - Texarkana Rgnl Webb Fld (TXK) AA3823 2020-02-17 13:19:00
???? N/A 2020-02-17 13:33:00
Dallas Fort Worth (DFW) - Texarkana Rgnl Webb Fld (TXK) AA3823 2020-02-17 01:25:00
Shreveport Rgnl (SHV) - Dallas Fort Worth (DFW) AA3872 2020-02-16 23:02:00
Dallas Fort Worth (DFW) - Lake Charles Rgnl (LCH) - Dallas Fort Worth (DFW) AA3323 2020-02-16 19:24:00
Abilene Rgnl (ABI) - Dallas Fort Worth (DFW) AA3632 2020-02-16 15:28:00
Shreveport Rgnl (SHV) - Abilene Rgnl (ABI) MQ9803 2020-02-15 02:49:00
Dallas Fort Worth (DFW) - Shreveport Rgnl (SHV) - Dallas Fort Worth (DFW) AA3872 2020-02-15 01:48:00
Springfield Branson Natl (SGF) - Dallas Fort Worth (DFW) AA3768 2020-02-14 19:35:00
Dallas Fort Worth (DFW) - Springfield Branson Natl (SGF) AA3873 2020-02-14 19:24:00
Champaign (CMI) - Dallas Fort Worth (DFW) AA3667 2020-02-14 15:18:00
Chicago Ohare Intl (ORD) - Champaign (CMI) AA3696 2020-02-14 03:35:00
Chicago Ohare Intl (ORD) - Birmingham Intl (BHM) - Chicago Ohare Intl (ORD) AA3603 2020-02-14 02:52:00
Louisville International Airport (SDF) - Chicago Ohare Intl (ORD) AA4174 2020-02-13 19:42:00
Chicago Ohare Intl (ORD) - Louisville International Airport (SDF) AA4076 2020-02-13 16:33:00
Manhattan Reigonal (MHK) - Chicago Ohare Intl (ORD) AA3443 2020-02-13 14:51:00
Chicago Ohare Intl (ORD) - Manhattan Reigonal (MHK) AA3532 2020-02-13 03:38:00
???? AA4187 2020-02-13 00:54:00
Chicago Ohare Intl (ORD) - La Crosse Municipal (LSE) - Chicago Ohare Intl (ORD) AA4151 2020-02-12 18:36:00
Sawyer International Airport (MQT) - Chicago Ohare Intl (ORD) AA4036 2020-02-12 14:39:00
Time Lat Lon Altitude Heading Speed Vertical Rate
2020-01-19 04:40:02 GMT 41.991898 -87.928345 0 300 2
2020-01-19 04:39:51 GMT 41.991943 -87.928223 0 300 2
2020-01-19 04:39:41 GMT 41.992012 -87.928223 0 300 2
2020-01-19 04:39:23 GMT 41.992119 -87.928291 0 300 1
2020-01-19 04:39:11 GMT 41.992172 -87.928299 0 300 0
2020-01-19 04:39:02 GMT 41.992184 -87.928299 0 300 0
2020-01-19 04:38:51 GMT 41.992073 -87.928314 0 300 4
2020-01-19 04:38:40 GMT 41.991898 -87.928185 0 300 5
2020-01-19 04:38:31 GMT 41.991749 -87.927979 0 300 6
2020-01-19 04:38:17 GMT 41.991528 -87.927689 0 300 8
2020-01-19 04:38:05 GMT 41.991505 -87.927116 0 239 9
2020-01-19 04:37:57 GMT 41.991737 -87.926712 0 230 11
2020-01-19 04:37:46 GMT 41.992069 -87.926193 0 230 11
2020-01-19 04:37:36 GMT 41.992458 -87.925568 0 230 11
2020-01-19 04:37:23 GMT 41.992813 -87.925003 0 230 11
2020-01-19 04:37:16 GMT 41.993076 -87.924583 0 230 11
2020-01-19 04:36:15 GMT 41.994919 -87.921257 0 292 11
2020-01-19 04:36:05 GMT 41.994644 -87.920807 0 320 11
2020-01-19 04:35:40 GMT 41.993660 -87.919701 0 320 11
2020-01-19 04:35:33 GMT 41.993366 -87.919380 0 320 11
2020-01-19 04:35:22 GMT 41.992981 -87.918938 0 317 11
2020-01-19 04:35:12 GMT 41.992596 -87.918526 0 320 11
2020-01-19 04:35:00 GMT 41.992104 -87.917953 0 320 11
2020-01-19 04:34:51 GMT 41.991783 -87.917587 0 320 11
2020-01-19 04:34:13 GMT 41.990314 -87.915932 0 320 11
2020-01-19 04:34:03 GMT 41.989975 -87.915550 0 317 11
2020-01-19 04:33:44 GMT 41.989964 -87.914345 0 258 11
2020-01-19 04:33:22 GMT 41.989975 -87.912895 0 270 11
2020-01-19 04:33:18 GMT 41.989979 -87.912613 0 270 11
2020-01-19 04:33:06 GMT 41.989975 -87.911804 0 270 12
2020-01-19 04:32:52 GMT 41.989769 -87.910896 0 331 10
2020-01-19 04:32:47 GMT 41.989582 -87.910828 0 354 12
2020-01-19 04:32:36 GMT 41.989014 -87.910812 0 0 12
2020-01-19 04:32:26 GMT 41.988430 -87.910812 0 0 11
2020-01-19 04:32:15 GMT 41.987949 -87.910820 0 0 11
2020-01-19 04:32:06 GMT 41.987434 -87.910820 0 0 12
2020-01-19 04:31:55 GMT 41.986942 -87.911003 0 53 10
2020-01-19 04:31:45 GMT 41.986828 -87.911537 0 90 10
2020-01-19 04:31:33 GMT 41.986828 -87.912407 0 90 12
2020-01-19 04:31:24 GMT 41.986828 -87.912971 0 90 12
2020-01-19 04:31:09 GMT 41.986824 -87.914070 0 90 12
2020-01-19 04:31:01 GMT 41.986828 -87.914581 0 90 12
2020-01-19 04:30:52 GMT 41.986835 -87.915184 0 87 12
2020-01-19 04:30:40 GMT 41.986835 -87.916115 0 90 12
2020-01-19 04:30:20 GMT 41.986828 -87.917450 0 90 12
2020-01-19 04:30:12 GMT 41.986824 -87.918106 0 90 12
2020-01-19 04:29:58 GMT 41.986824 -87.918968 0 90 12
2020-01-19 04:29:47 GMT 41.986828 -87.919853 0 90 12
2020-01-19 04:29:39 GMT 41.986824 -87.920326 0 90 12
2020-01-19 04:29:27 GMT 41.986824 -87.921249 0 90 12
2020-01-19 04:29:19 GMT 41.986824 -87.921745 0 90 12
2020-01-19 04:29:04 GMT 41.986637 -87.922722 0 50 11
2020-01-19 04:28:57 GMT 41.986370 -87.923149 0 47 11
2020-01-19 04:28:47 GMT 41.986092 -87.923599 0 50 11
2020-01-19 04:28:36 GMT 41.985718 -87.924210 0 45 11
2020-01-19 04:28:15 GMT 41.984756 -87.924492 0 337 11
2020-01-19 04:28:00 GMT 41.984146 -87.923889 0 320 11
2020-01-19 04:27:53 GMT 41.983868 -87.923584 0 320 11
2020-01-19 04:27:39 GMT 41.983288 -87.922943 0 320 11
2020-01-19 04:27:29 GMT 41.982914 -87.922516 0 320 11
2020-01-19 04:27:22 GMT 41.982658 -87.922211 0 320 11
2020-01-19 04:27:14 GMT 41.982307 -87.921822 0 320 11
2020-01-19 04:27:00 GMT 41.981819 -87.921288 0 317 11
2020-01-19 04:26:54 GMT 41.981529 -87.920952 0 320 11
2020-01-19 04:26:42 GMT 41.981117 -87.920494 0 320 11
2020-01-19 04:26:32 GMT 41.980728 -87.920044 0 320 11
2020-01-19 04:26:23 GMT 41.980339 -87.919601 0 320 11
2020-01-19 04:26:12 GMT 41.979939 -87.919151 0 320 11
2020-01-19 04:26:01 GMT 41.979527 -87.918701 0 320 11
2020-01-19 04:25:50 GMT 41.979092 -87.918198 0 320 11
2020-01-19 04:25:19 GMT 41.977924 -87.916885 0 320 11
2020-01-19 04:25:04 GMT 41.977341 -87.916222 0 320 11
2020-01-19 04:24:50 GMT 41.976807 -87.915634 0 317 11
2020-01-19 04:24:41 GMT 41.976456 -87.915230 0 320 11
2020-01-19 04:24:38 GMT 41.976311 -87.915077 0 320 11
2020-01-19 04:24:27 GMT 41.976013 -87.914520 0 275 11
2020-01-19 04:24:18 GMT 41.976082 -87.913910 0 247 11
2020-01-19 04:24:06 GMT 41.976280 -87.913239 0 250 11
2020-01-19 04:23:56 GMT 41.976460 -87.912567 0 255 9
2020-01-19 04:23:45 GMT 41.976337 -87.912056 0 323 8
2020-01-19 04:23:36 GMT 41.976048 -87.911758 0 323 11
2020-01-19 04:23:25 GMT 41.975624 -87.911331 0 323 11
2020-01-19 04:23:13 GMT 41.975094 -87.910812 0 323 11
2020-01-19 04:23:04 GMT 41.974766 -87.910461 0 320 11
2020-01-19 04:22:55 GMT 41.974377 -87.910042 0 320 11
2020-01-19 04:22:44 GMT 41.973988 -87.909599 0 320 11
2020-01-19 04:22:33 GMT 41.973587 -87.909119 0 317 11
2020-01-19 04:22:24 GMT 41.973232 -87.908638 0 315 11
2020-01-19 04:22:10 GMT 41.972801 -87.908051 0 312 11
2020-01-19 04:22:02 GMT 41.972546 -87.907631 0 306 11
2020-01-19 04:21:52 GMT 41.972305 -87.907028 0 286 11
2020-01-19 04:21:42 GMT 41.972206 -87.906357 0 275 11
2020-01-19 04:21:31 GMT 41.972160 -87.905602 0 275 11
2020-01-19 04:21:19 GMT 41.972122 -87.904877 0 275 11
2020-01-19 04:21:07 GMT 41.972088 -87.904121 0 272 11
2020-01-19 04:20:59 GMT 41.972069 -87.903481 0 270 11
2020-01-19 04:20:49 GMT 41.972069 -87.902969 0 270 9
2020-01-19 04:19:30 GMT 41.972591 -87.902092 0 0
2020-01-19 04:19:25 GMT 41.972591 -87.902092 0 0
2020-01-19 04:19:17 GMT 41.972591 -87.902092 0 0
2020-01-19 04:19:05 GMT 41.972591 -87.902092 0 0
2020-01-19 04:18:53 GMT 41.972614 -87.902107 0 2
2020-01-19 04:18:45 GMT 41.972660 -87.902145 0 2
2020-01-19 04:18:31 GMT 41.972710 -87.902222 0 1
2020-01-19 04:17:42 GMT 41.972740 -87.902451 0 0
2020-01-19 04:17:12 GMT 41.972710 -87.902519 0 0
2020-01-19 04:16:56 GMT 41.972706 -87.902519 0 0
2020-01-19 04:16:36 GMT 41.972710 -87.902519 0 0
2020-01-19 04:16:26 GMT 41.972706 -87.902519 0 0
2020-01-19 04:15:56 GMT 41.972710 -87.902519 0 0
2020-01-19 04:15:12 GMT 41.972706 -87.902519 0 0
2020-01-19 04:14:52 GMT 41.972710 -87.902519 0 0
2020-01-19 04:14:22 GMT 41.972706 -87.902519 0 0
2020-01-19 04:14:13 GMT 41.972710 -87.902519 0 0
2020-01-19 04:13:18 GMT 41.972706 -87.902519 0 0
2020-01-19 04:13:09 GMT 41.972710 -87.902519 0 0
2020-01-19 04:12:49 GMT 41.972706 -87.902519 0 0
2020-01-19 04:12:08 GMT 41.972710 -87.902519 0 0
2020-01-19 04:11:58 GMT 41.972706 -87.902519 0 0
2020-01-19 04:11:48 GMT 41.972710 -87.902519 0 0
2020-01-19 04:11:38 GMT 41.972706 -87.902519 0 0
2020-01-19 04:11:29 GMT 41.972710 -87.902519 0 0
2020-01-19 04:11:03 GMT 41.972706 -87.902519 0 0
2020-01-19 04:10:33 GMT 41.972710 -87.902519 0 0
2020-01-19 04:10:17 GMT 41.972706 -87.902519 0 0
2020-01-19 04:10:12 GMT 41.972710 -87.902519 0 0
2020-01-19 04:09:43 GMT 41.972706 -87.902519 0 0
2020-01-19 04:09:32 GMT 41.972710 -87.902519 0 0
2020-01-19 04:09:16 GMT 41.972706 -87.902519 0 0
2020-01-19 04:08:52 GMT 41.972710 -87.902519 0 0
2020-01-19 04:08:22 GMT 41.972706 -87.902519 0 0
2020-01-19 04:08:11 GMT 41.972710 -87.902504 0 0
2020-01-19 04:07:57 GMT 41.972710 -87.902519 0 0
2020-01-19 04:07:36 GMT 41.972710 -87.902504 0 0
2020-01-19 04:07:27 GMT 41.972706 -87.902519 0 0
2020-01-19 04:06:45 GMT 41.972710 -87.902504 0 0
We lost coverage of the aircraft here for a total of 73 minutes
2020-01-19 02:53:22 GMT 41.972706 -87.902519 0 90 0 0
2020-01-19 02:53:18 GMT 41.972710 -87.902519 0 90 0 0
2020-01-19 02:53:02 GMT 41.972694 -87.902519 0 90 0 0
2020-01-19 02:52:59 GMT 41.972694 -87.902519 0 90 0 0
2020-01-19 02:52:50 GMT 41.972683 -87.902534 0 90 0 0
2020-01-19 02:52:39 GMT 41.972672 -87.902550 0 90 0 0
2020-01-19 02:52:28 GMT 41.972626 -87.902596 0 90 2 0
2020-01-19 02:52:13 GMT 41.972569 -87.902641 0 90 2 0
2020-01-19 02:52:04 GMT 41.972473 -87.902725 0 90 3 0
2020-01-19 02:51:52 GMT 41.972382 -87.902824 0 90 3 0
2020-01-19 02:51:42 GMT 41.972260 -87.902863 0 90 3 0
2020-01-19 02:49:56 GMT 41.971378 -87.902954 0 90 3 0
2020-01-19 02:49:51 GMT 41.971371 -87.903015 0 90 3 0
2020-01-19 02:49:33 GMT 41.971382 -87.903259 0 0 0 0
2020-01-19 02:49:25 GMT 41.971382 -87.903221 0 0 0 0
2020-01-19 02:49:17 GMT 41.971394 -87.903145 0 63 0 0
2020-01-19 02:49:06 GMT 41.971371 -87.903130 0 63 0 0
2020-01-19 02:48:55 GMT 41.971382 -87.903191 0 63 1 0
2020-01-19 02:48:42 GMT 41.971382 -87.903397 0 63 4 0
2020-01-19 02:48:32 GMT 41.971394 -87.903587 0 63 4 0
2020-01-19 02:48:22 GMT 41.971394 -87.903816 0 63 4 0
2020-01-19 02:48:12 GMT 41.971405 -87.904099 0 63 4 0
2020-01-19 02:48:00 GMT 41.971394 -87.904343 0 63 4 0
2020-01-19 02:47:49 GMT 41.971401 -87.904625 0 45 5 0
2020-01-19 02:47:39 GMT 41.971275 -87.904739 0 26 2 0
2020-01-19 02:46:46 GMT 41.970497 -87.905121 0 90 4 0
2020-01-19 02:46:34 GMT 41.970440 -87.905327 0 90 2 0
2020-01-19 02:46:17 GMT 41.970413 -87.905716 0 90 4 0
2020-01-19 02:46:08 GMT 41.970406 -87.905937 0 90 4 0
2020-01-19 02:45:55 GMT 41.970417 -87.906235 0 90 6 0
2020-01-19 02:45:43 GMT 41.970440 -87.906548 0 90 5 0
2020-01-19 02:45:33 GMT 41.970413 -87.906784 0 90 4 0
2020-01-19 02:45:18 GMT 41.970394 -87.907104 0 26 5 0
2020-01-19 02:45:11 GMT 41.970348 -87.907272 0 26 4 0
2020-01-19 02:44:59 GMT 41.970196 -87.907440 0 21 6 0
2020-01-19 02:44:49 GMT 41.970009 -87.907539 0 346 4 0
2020-01-19 02:44:16 GMT 41.969593 -87.907166 0 282 4 0
2020-01-19 02:44:01 GMT 41.969456 -87.906853 0 282 4 0
2020-01-19 02:43:39 GMT 41.969299 -87.906357 0 282 4 0
2020-01-19 02:43:36 GMT 41.969288 -87.906273 0 278 4 0
2020-01-19 02:43:23 GMT 41.969238 -87.906013 0 270 7 0
2020-01-19 02:43:15 GMT 41.969147 -87.905807 0 270 4 0
2020-01-19 02:43:02 GMT 41.969124 -87.905579 0 297 4 0
2020-01-19 02:42:53 GMT 41.969078 -87.905434 0 0 0 0
2020-01-19 02:42:42 GMT 41.969067 -87.905266 0 342 0 0
2020-01-19 02:42:32 GMT 41.969067 -87.905220 0 45 3 0
2020-01-19 02:42:23 GMT 41.969021 -87.905045 0 45 0 0
2020-01-19 02:42:09 GMT 41.969044 -87.905090 0 0 0 0
2020-01-19 02:41:55 GMT 41.969044 -87.905090 0 45 2 0
2020-01-19 02:41:51 GMT 41.969021 -87.905045 0 63 2 0
2020-01-19 02:41:41 GMT 41.969021 -87.905090 0 63 2 0
2020-01-19 02:41:30 GMT 41.969021 -87.905045 0 0 0 0
2020-01-19 02:41:21 GMT 41.969021 -87.905060 0 0 0 0
2020-01-19 02:41:09 GMT 41.969021 -87.905045 0 0 0 0
2020-01-19 02:41:00 GMT 41.969021 -87.905060 0 0 2 0
2020-01-19 02:40:47 GMT 41.969021 -87.905045 0 0 0 0
2020-01-19 02:40:38 GMT 41.969021 -87.905029 0 0 0 0
2020-01-19 02:40:28 GMT 41.969067 -87.905045 0 0 2 0
2020-01-19 02:40:16 GMT 41.969021 -87.904999 0 63 2 0
2020-01-19 02:39:42 GMT 41.969021 -87.905029 0 45 2 0
2020-01-19 02:38:46 GMT 41.969044 -87.905029 0 0 0 0
2020-01-19 02:38:21 GMT 41.969067 -87.905045 0 0 0 0
2020-01-19 02:38:12 GMT 41.969078 -87.905060 0 0 2 0
2020-01-19 02:38:02 GMT 41.969044 -87.905090 0 0 0 0
2020-01-19 02:37:51 GMT 41.969021 -87.905029 0 26 2 0
2020-01-19 02:37:41 GMT 41.969021 -87.905106 0 26 2 0
2020-01-19 02:37:30 GMT 41.969044 -87.905045 0 0 0 0
2020-01-19 02:37:18 GMT 41.969021 -87.905045 0 0 0 0
2020-01-19 02:37:09 GMT 41.969044 -87.905090 0 0 2 0
2020-01-19 02:37:00 GMT 41.969021 -87.905121 0 26 0 0
2020-01-19 02:36:49 GMT 41.969021 -87.905136 0 18 4 0
2020-01-19 02:36:38 GMT 41.969044 -87.905045 0 270 0 0
We lost coverage of the aircraft here for a total of 9 minutes
2020-01-19 02:27:45 GMT 41.969044 -87.904953 0 270 0 0
2020-01-19 02:27:46 GMT 41.969044 -87.904953 0 270 0 0
2020-01-19 02:27:45 GMT 41.969044 -87.904953 0 270 0 0
2020-01-19 02:27:46 GMT 41.969044 -87.904953 0 270 0 0
2020-01-19 02:27:46 GMT 41.969044 -87.904953 0 270 12 0
2020-01-19 02:27:45 GMT 41.969044 -87.904953 0 270 0 0
2020-01-19 02:27:45 GMT 41.969044 -87.904953 0 270 0 0
2020-01-19 02:27:46 GMT 41.969044 -87.904953 0 270 12 0
2020-01-19 02:27:39 GMT 41.969044 -87.904083 0 270 31 0
2020-01-19 02:27:29 GMT 41.969055 -87.901787 0 270 57 0
2020-01-19 02:27:24 GMT 41.969055 -87.899239 625 270 95 0
2020-01-19 02:27:08 GMT 41.969078 -87.890305 600 270 108 256
2020-01-19 02:27:03 GMT 41.969078 -87.886024 625 270 119 -320
2020-01-19 02:26:55 GMT 41.969101 -87.880447 725 270 123 -832
2020-01-19 02:26:52 GMT 41.969124 -87.878487 750 270 123 -960
2020-01-19 02:26:47 GMT 41.969101 -87.874397 800 270 123 -896
2020-01-19 02:26:44 GMT 41.969101 -87.872208 850 270 123 -704
2020-01-19 02:26:41 GMT 41.969124 -87.870247 875 270 124 -832
2020-01-19 02:26:38 GMT 41.969124 -87.867180 900 271 125 -768
2020-01-19 02:26:33 GMT 41.969078 -87.863731 975 270 124 -1152
2020-01-19 02:26:28 GMT 41.969124 -87.859711 1,050 270 128 -640
2020-01-19 02:26:24 GMT 41.969101 -87.856667 1,125 270 131 -704
2020-01-19 02:26:17 GMT 41.969124 -87.850960 1,175 271 130 -832
2020-01-19 02:26:14 GMT 41.969147 -87.847557 1,225 270 131 -896
2020-01-19 02:26:08 GMT 41.969147 -87.842621 1,300 270 133 -896
2020-01-19 02:26:02 GMT 41.969193 -87.837692 1,400 270 133 -640
2020-01-19 02:25:57 GMT 41.969193 -87.834381 1,600 271 129 -832
2020-01-19 02:25:52 GMT 41.969193 -87.830574 1,500 270 128 -768
2020-01-19 02:25:46 GMT 41.969170 -87.826241 1,575 270 130 -768
2020-01-19 02:25:41 GMT 41.969170 -87.822021 1,625 271 130 -704
2020-01-19 02:25:37 GMT 41.969147 -87.817719 1,700 270 129 -704
2020-01-19 02:25:32 GMT 41.969147 -87.813782 1,750 270 131 -960
2020-01-19 02:25:25 GMT 41.969147 -87.809227 1,900 271 131 -896
2020-01-19 02:25:22 GMT 41.969124 -87.805481 1,925 271 130 -896
2020-01-19 02:25:15 GMT 41.969078 -87.800308 1,975 270 130 -768
2020-01-19 02:25:11 GMT 41.969078 -87.797432 2,025 270 129 -640
2020-01-19 02:25:03 GMT 41.969147 -87.791557 2,125 269 127 -832
2020-01-19 02:25:00 GMT 41.969215 -87.788872 2,200 270 127 -832
2020-01-19 02:24:55 GMT 41.969261 -87.785042 2,675 270 127 -768
2020-01-19 02:24:52 GMT 41.969311 -87.781525 2,275 270 128 -704
2020-01-19 02:24:49 GMT 41.969284 -87.780449 2,300 270 128 -576
2020-01-19 02:24:43 GMT 41.969261 -87.775520 2,375 271 128 -768
2020-01-19 02:24:39 GMT 41.969215 -87.772011 2,850 271 126 -832
2020-01-19 02:24:34 GMT 41.969170 -87.767349 2,500 270 127 -704
2020-01-19 02:24:31 GMT 41.969193 -87.764969 2,525 271 128 -896
2020-01-19 02:24:28 GMT 41.969170 -87.759491 2,675 270 130 -512
2020-01-19 02:24:24 GMT 41.969170 -87.757828 2,700 270 130 -640
2020-01-19 02:24:21 GMT 41.969170 -87.757828 2,675 270 130 -832
2020-01-19 02:24:18 GMT 41.969147 -87.755417 2,700 270 130 -768
2020-01-19 02:24:13 GMT 41.969193 -87.751175 2,750 270 128 -704
2020-01-19 02:24:07 GMT 41.969238 -87.747116 2,900 271 127 -576
2020-01-19 02:24:04 GMT 41.969215 -87.741287 2,925 271 127 -960
2020-01-19 02:24:00 GMT 41.969215 -87.741287 2,925 271 127 -832
2020-01-19 02:23:57 GMT 41.969193 -87.739189 3,125 269 127 -832
2020-01-19 02:23:53 GMT 41.969193 -87.734947 3,050 271 125 -448
2020-01-19 02:23:49 GMT 41.969170 -87.732536 3,075 271 125 -768
2020-01-19 02:23:46 GMT 41.969170 -87.730682 3,100 271 125 -832
2020-01-19 02:23:42 GMT 41.969078 -87.726341 3,175 272 125 -704
2020-01-19 02:23:39 GMT 41.969055 -87.724892 3,200 272 126 -704
2020-01-19 02:23:36 GMT 41.969028 -87.722893 3,300 270 124 -832
2020-01-19 02:23:31 GMT 41.968983 -87.718552 3,275 271 124 -768
2020-01-19 02:23:26 GMT 41.969009 -87.714966 3,325 270 127 -640
2020-01-19 02:23:22 GMT 41.969055 -87.711845 3,425 267 126 -704
2020-01-19 02:23:18 GMT 41.969238 -87.707726 3,450 267 129 -576
2020-01-19 02:23:11 GMT 41.969421 -87.702667 3,575 270 128 -832
2020-01-19 02:23:08 GMT 41.969448 -87.700279 3,575 270 129 -768
2020-01-19 02:23:05 GMT 41.969498 -87.698364 4,025 271 145 -832
2020-01-19 02:23:01 GMT 41.969448 -87.694344 3,750 271 127 -960
2020-01-19 02:22:57 GMT 41.969421 -87.691315 3,750 272 128 -896
2020-01-19 02:22:54 GMT 41.969376 -87.690063 3,775 272 129 -704
2020-01-19 02:22:50 GMT 41.969357 -87.685974 3,825 271 135 -640
2020-01-19 02:22:44 GMT 41.969311 -87.681625 3,900 271 135 -768
2020-01-19 02:22:39 GMT 41.969311 -87.676521 3,975 270 137 -768
2020-01-19 02:22:36 GMT 41.969261 -87.674156 4,075 272 142 -832
2020-01-19 02:22:27 GMT 41.969170 -87.665596 4,150 271 145 -960
2020-01-19 02:22:23 GMT 41.969124 -87.663490 4,175 270 145 -832
2020-01-19 02:22:18 GMT 41.969170 -87.658440 4,350 269 146 -832
2020-01-19 02:22:13 GMT 41.969215 -87.654099 4,350 269 146 -832
2020-01-19 02:22:08 GMT 41.969284 -87.649551 4,400 269 148 -896
2020-01-19 02:22:05 GMT 41.969330 -87.645866 4,475 270 148 -832
2020-01-19 02:22:02 GMT 41.969330 -87.644371 4,475 270 147 -768
2020-01-19 02:21:58 GMT 41.969357 -87.639854 4,550 270 149 -832
2020-01-19 02:21:55 GMT 41.969376 -87.637070 4,625 271 151 -832
2020-01-19 02:21:52 GMT 41.969357 -87.634232 4,650 271 153 -768
2020-01-19 02:21:48 GMT 41.969311 -87.630020 4,700 272 154 -896
2020-01-19 02:21:42 GMT 41.969261 -87.625099 4,775 271 153 -704
2020-01-19 02:21:37 GMT 41.969215 -87.620178 4,825 271 153 -704
2020-01-19 02:21:34 GMT 41.969170 -87.616730 4,875 271 157 -64
2020-01-19 02:21:27 GMT 41.969215 -87.610603 4,900 270 155 -384
2020-01-19 02:21:23 GMT 41.969215 -87.606323 4,925 271 156 -128
2020-01-19 02:21:20 GMT 41.969215 -87.604408 4,950 270 157 -384
2020-01-19 02:21:17 GMT 41.969215 -87.600128 4,950 271 156 -128
2020-01-19 02:21:13 GMT 41.969170 -87.595848 4,950 271 157 0
2020-01-19 02:21:10 GMT 41.969193 -87.594872 4,975 271 157 -64
2020-01-19 02:21:05 GMT 41.969147 -87.589813 4,975 271 157 0
2020-01-19 02:21:01 GMT 41.969055 -87.581635 4,975 270 157 -64
2020-01-19 02:20:58 GMT 41.969055 -87.581635 4,975 270 157 -64
2020-01-19 02:20:55 GMT 41.969101 -87.579697 4,975 270 157 0
2020-01-19 02:20:52 GMT 41.969078 -87.576363 4,975 270 157 -64
2020-01-19 02:20:49 GMT 41.969101 -87.573456 4,975 270 157 64
2020-01-19 02:20:45 GMT 41.969124 -87.570107 4,975 270 156 0
2020-01-19 02:20:42 GMT 41.969124 -87.566277 4,975 270 156 64
2020-01-19 02:20:39 GMT 41.969124 -87.563911 4,975 270 156 0
2020-01-19 02:20:35 GMT 41.969147 -87.559479 4,975 270 155 -64
2020-01-19 02:20:29 GMT 41.969193 -87.553734 4,975 270 154 0
2020-01-19 02:20:26 GMT 41.969215 -87.551262 4,975 270 154 0
2020-01-19 02:20:23 GMT 41.969215 -87.548965 4,975 270 155 -64
2020-01-19 02:20:20 GMT 41.969238 -87.545677 4,975 270 155 -64
2020-01-19 02:20:17 GMT 41.969215 -87.543533 4,975 271 156 -64
2020-01-19 02:20:13 GMT 41.969193 -87.537941 4,975 271 157 -64
2020-01-19 02:20:10 GMT 41.969124 -87.531464 4,975 272 158 64
2020-01-19 02:20:06 GMT 41.969124 -87.531464 4,975 272 158 0
2020-01-19 02:20:01 GMT 41.969078 -87.526352 4,975 272 158 -128
2020-01-19 02:19:57 GMT 41.969009 -87.523392 4,975 272 158 -64
2020-01-19 02:19:54 GMT 41.968983 -87.518875 4,975 271 157 -64
2020-01-19 02:19:50 GMT 41.968937 -87.516579 4,975 270 156 0
2020-01-19 02:19:47 GMT 41.968983 -87.513069 4,975 270 156 0
2020-01-19 02:19:43 GMT 41.968983 -87.509621 4,975 270 155 0
2020-01-19 02:19:40 GMT 41.969028 -87.506935 4,975 270 154 -64
2020-01-19 02:19:36 GMT 41.969028 -87.503098 4,975 270 153 0
2020-01-19 02:19:32 GMT 41.969078 -87.499268 4,975 270 153 64
2020-01-19 02:19:28 GMT 41.969078 -87.494354 4,975 270 152 128
2020-01-19 02:19:25 GMT 41.969101 -87.493057 4,950 270 152 192
2020-01-19 02:19:22 GMT 41.969101 -87.489624 4,950 270 153 64
2020-01-19 02:19:16 GMT 41.969028 -87.483360 4,975 271 153 -128
2020-01-19 02:19:11 GMT 41.969009 -87.479759 4,950 271 153 0
2020-01-19 02:19:07 GMT 41.968937 -87.475380 4,975 271 154 -128
2020-01-19 02:19:04 GMT 41.968964 -87.472893 4,975 270 156 0
2020-01-19 02:19:01 GMT 41.968964 -87.468590 4,975 270 158 -128
2020-01-19 02:18:58 GMT 41.969009 -87.466278 4,975 269 158 64
2020-01-19 02:18:55 GMT 41.969078 -87.462929 4,975 269 157 128
2020-01-19 02:18:51 GMT 41.969078 -87.459793 4,975 270 155 0
2020-01-19 02:18:47 GMT 41.969101 -87.455788 4,975 271 153 192
2020-01-19 02:18:44 GMT 41.969101 -87.452354 4,975 272 153 -192
2020-01-19 02:18:41 GMT 41.969055 -87.450111 4,975 272 153 64
2020-01-19 02:18:38 GMT 41.968964 -87.447426 4,950 272 154 128
2020-01-19 02:18:35 GMT 41.968872 -87.443619 4,950 273 154 -64
2020-01-19 02:18:32 GMT 41.968643 -87.434006 4,950 271 156 -128
2020-01-19 02:18:23 GMT 41.968613 -87.433098 4,950 271 157 -128
2020-01-19 02:18:20 GMT 41.968597 -87.430946 4,950 271 157 -128
2020-01-19 02:18:14 GMT 41.968597 -87.424644 4,975 270 158 -128
2020-01-19 02:18:10 GMT 41.968597 -87.420769 4,975 272 158 0
2020-01-19 02:18:03 GMT 41.968472 -87.414253 4,975 274 158 0
2020-01-19 02:18:00 GMT 41.967773 -87.406525 4,975 286 156 -192
2020-01-19 02:17:56 GMT 41.967773 -87.406525 4,975 282 158 0
2020-01-19 02:17:53 GMT 41.967316 -87.403671 4,975 288 155 64
2020-01-19 02:17:49 GMT 41.966675 -87.400673 4,975 287 155 -128
2020-01-19 02:17:46 GMT 41.965958 -87.397964 4,975 297 152 0
2020-01-19 02:17:43 GMT 41.964981 -87.394928 4,975 295 154 -320
2020-01-19 02:17:40 GMT 41.964249 -87.392868 4,975 297 152 0
2020-01-19 02:17:34 GMT 41.962189 -87.387299 4,975 297 149 0
2020-01-19 02:17:31 GMT 41.960999 -87.384132 4,975 297 150 64
2020-01-19 02:17:27 GMT 41.958618 -87.377762 4,975 297 148 0
2020-01-19 02:17:23 GMT 41.958416 -87.377274 4,975 297 148 128
2020-01-19 02:17:20 GMT 41.957809 -87.375671 4,975 297 148 0
2020-01-19 02:17:14 GMT 41.955669 -87.370049 4,975 298 147 64
2020-01-19 02:17:10 GMT 41.954636 -87.367340 4,975 298 146 0
2020-01-19 02:17:04 GMT 41.952457 -87.361748 4,975 298 146 -128
2020-01-19 02:17:00 GMT 41.951340 -87.358810 4,975 298 146 0
2020-01-19 02:16:55 GMT 41.949646 -87.354416 4,975 298 148 -64
2020-01-19 02:16:52 GMT 41.948826 -87.352295 4,975 298 148 64
2020-01-19 02:16:49 GMT 41.948082 -87.350311 4,975 298 149 0
2020-01-19 02:16:45 GMT 41.946686 -87.346672 4,950 298 151 0
2020-01-19 02:16:41 GMT 41.945709 -87.344177 4,950 298 151 0
2020-01-19 02:16:38 GMT 41.944794 -87.341873 4,950 298 153 64
2020-01-19 02:16:32 GMT 41.942322 -87.335381 4,950 297 156 0
2020-01-19 02:16:29 GMT 41.941471 -87.333130 4,950 297 157 -128
2020-01-19 02:16:21 GMT 41.938980 -87.326202 4,950 295 161 -128
2020-01-19 02:16:18 GMT 41.938168 -87.323807 4,975 295 161 -128
2020-01-19 02:16:11 GMT 41.934769 -87.314720 5,000 300 159 -64
2020-01-19 02:16:08 GMT 41.934769 -87.314720 5,000 303 158 128
2020-01-19 02:16:02 GMT 41.931839 -87.309845 4,975 321 158 -320
2020-01-19 02:15:58 GMT 41.929138 -87.307411 4,975 334 160 192
2020-01-19 02:15:50 GMT 41.923279 -87.305481 4,950 359 169 -128
2020-01-19 02:15:47 GMT 41.921722 -87.305412 4,975 2 170 -256
2020-01-19 02:15:42 GMT 41.917282 -87.305725 4,975 5 171 192
2020-01-19 02:15:39 GMT 41.913803 -87.306168 4,975 5 171 192
2020-01-19 02:15:30 GMT 41.907906 -87.306946 4,950 5 177 -64
2020-01-19 02:15:27 GMT 41.899338 -87.308159 4,950 5 176 -192
2020-01-19 02:15:19 GMT 41.899338 -87.308159 4,950 5 176 -128
2020-01-19 02:15:16 GMT 41.896919 -87.308479 4,975 5 177 -64
2020-01-19 02:15:10 GMT 41.891510 -87.309036 4,975 4 178 -64
2020-01-19 02:15:05 GMT 41.888214 -87.309349 4,975 3 178 -128
2020-01-19 02:14:59 GMT 41.882442 -87.309944 5,000 12 179 256
2020-01-19 02:14:56 GMT 41.879654 -87.310471 5,000 10 178 256
2020-01-19 02:14:52 GMT 41.873657 -87.313278 4,975 31 187 128
2020-01-19 02:14:48 GMT 41.873337 -87.313530 4,975 34 189 -128
2020-01-19 02:14:44 GMT 41.871597 -87.315094 4,975 36 190 -64
2020-01-19 02:14:41 GMT 41.868759 -87.318771 4,975 50 196 64
2020-01-19 02:14:36 GMT 41.866837 -87.322334 4,975 60 201 0
2020-01-19 02:14:33 GMT 41.865509 -87.325951 4,975 71 206 320
2020-01-19 02:14:27 GMT 41.863869 -87.335243 4,950 86 212 -256
2020-01-19 02:14:24 GMT 41.863728 -87.338371 4,975 90 213 0
2020-01-19 02:14:20 GMT 41.863770 -87.343369 4,975 92 215 0
2020-01-19 02:14:16 GMT 41.863960 -87.350060 4,975 92 215 -64
2020-01-19 02:14:13 GMT 41.864010 -87.352745 4,975 92 216 0
2020-01-19 02:14:10 GMT 41.864136 -87.357788 4,975 91 218 0
2020-01-19 02:14:05 GMT 41.864365 -87.367027 4,975 91 219 -64
2020-01-19 02:13:59 GMT 41.864475 -87.371651 4,975 91 219 -64
2020-01-19 02:13:56 GMT 41.864594 -87.376762 4,975 91 218 64
2020-01-19 02:13:51 GMT 41.864754 -87.382446 4,975 92 217 -64
2020-01-19 02:13:48 GMT 41.864799 -87.385704 4,975 92 218 64
2020-01-19 02:13:43 GMT 41.865032 -87.393234 4,975 92 217 64
2020-01-19 02:13:39 GMT 41.865219 -87.399689 4,975 92 216 0
2020-01-19 02:13:36 GMT 41.865326 -87.403671 4,975 92 216 0
2020-01-19 02:13:32 GMT 41.865601 -87.412781 4,975 92 216 -64
2020-01-19 02:13:28 GMT 41.865601 -87.412781 4,975 92 216 0
2020-01-19 02:13:25 GMT 41.865784 -87.418091 4,975 92 216 64
2020-01-19 02:13:22 GMT 41.865829 -87.420769 4,975 92 216 -64
2020-01-19 02:13:18 GMT 41.866013 -87.426704 4,975 92 217 64
2020-01-19 02:13:15 GMT 41.866150 -87.431816 4,975 92 218 128
2020-01-19 02:13:12 GMT 41.866241 -87.434502 4,975 92 218 64
2020-01-19 02:13:08 GMT 41.866428 -87.440948 4,975 92 218 -128
2020-01-19 02:13:04 GMT 41.866562 -87.445557 4,975 92 218 -64
2020-01-19 02:13:01 GMT 41.866661 -87.449066 4,975 92 218 0
2020-01-19 02:12:57 GMT 41.866802 -87.455002 4,975 92 217 -64
2020-01-19 02:12:54 GMT 41.866940 -87.459862 4,975 92 216 -64
2020-01-19 02:12:51 GMT 41.867020 -87.462784 4,975 92 215 -128
2020-01-19 02:12:46 GMT 41.867203 -87.468651 4,975 91 213 -128
2020-01-19 02:12:43 GMT 41.867313 -87.473145 5,000 92 212 64
2020-01-19 02:12:40 GMT 41.867409 -87.476784 4,975 92 211 256
2020-01-19 02:12:37 GMT 41.867569 -87.482323 4,975 92 207 -64
2020-01-19 02:12:31 GMT 41.867825 -87.490326 4,975 92 207 128
2020-01-19 02:12:26 GMT 41.868011 -87.495438 4,975 92 207 0
2020-01-19 02:12:21 GMT 41.868256 -87.501862 4,975 92 208 64
2020-01-19 02:12:18 GMT 41.868385 -87.505722 4,975 92 208 -64
2020-01-19 02:12:15 GMT 41.868484 -87.509102 4,975 91 209 0
2020-01-19 02:12:10 GMT 41.868668 -87.517403 4,950 91 211 64
2020-01-19 02:12:06 GMT 41.868755 -87.522392 4,950 91 214 0
2020-01-19 02:12:02 GMT 41.868942 -87.530823 4,950 91 214 -128
2020-01-19 02:11:59 GMT 41.868942 -87.530823 4,950 92 214 64
2020-01-19 02:11:55 GMT 41.869080 -87.535881 4,950 92 216 128
2020-01-19 02:11:50 GMT 41.869316 -87.543152 4,950 92 219 -64
2020-01-19 02:11:47 GMT 41.869453 -87.546921 4,950 92 220 0
2020-01-19 02:11:40 GMT 41.869766 -87.556541 4,950 92 223 -64
2020-01-19 02:11:37 GMT 41.869968 -87.561806 4,950 92 224 -128
2020-01-19 02:11:34 GMT 41.870060 -87.564545 4,975 92 226 0
2020-01-19 02:11:30 GMT 41.870293 -87.571320 4,975 92 226 -64
2020-01-19 02:11:27 GMT 41.870434 -87.574707 4,975 92 226 0
2020-01-19 02:11:23 GMT 41.870571 -87.579750 4,975 92 226 -64
2020-01-19 02:11:20 GMT 41.870728 -87.584503 4,975 92 226 -320
2020-01-19 02:11:17 GMT 41.870991 -87.593163 4,950 92 232 -128
2020-01-19 02:11:13 GMT 41.870991 -87.593163 5,000 92 225 192
2020-01-19 02:11:09 GMT 41.871140 -87.600113 4,975 91 226 256
2020-01-19 02:11:06 GMT 41.871223 -87.603638 4,975 92 226 320
2020-01-19 02:11:03 GMT 41.871319 -87.607666 4,950 92 227 0
2020-01-19 02:10:59 GMT 41.871552 -87.614944 4,950 92 227 64
2020-01-19 02:10:56 GMT 41.871689 -87.619476 4,950 92 227 128
2020-01-19 02:10:53 GMT 41.871735 -87.622025 4,950 92 228 -128
2020-01-19 02:10:48 GMT 41.871964 -87.630577 4,950 92 230 -64
2020-01-19 02:10:45 GMT 41.872017 -87.632576 4,975 92 231 -128
2020-01-19 02:10:42 GMT 41.872154 -87.636536 4,975 92 231 -128
2020-01-19 02:10:39 GMT 41.872284 -87.641998 4,975 92 232 -64
2020-01-19 02:10:36 GMT 41.872482 -87.647522 4,975 92 232 256
2020-01-19 02:10:32 GMT 41.872604 -87.651863 4,975 92 233 128
2020-01-19 02:10:28 GMT 41.872807 -87.659149 4,975 92 234 0
2020-01-19 02:10:25 GMT 41.872925 -87.663467 4,975 92 233 -256
2020-01-19 02:10:21 GMT 41.873016 -87.666901 4,975 92 233 64
2020-01-19 02:10:18 GMT 41.873226 -87.673645 4,975 92 232 -128
2020-01-19 02:10:15 GMT 41.873474 -87.681381 4,975 92 231 0
2020-01-19 02:10:07 GMT 41.873692 -87.688591 4,975 92 232 0
2020-01-19 02:10:04 GMT 41.873840 -87.693497 4,975 92 230 -192
2020-01-19 02:10:00 GMT 41.873924 -87.697281 4,975 92 230 64
2020-01-19 02:09:56 GMT 41.874157 -87.705200 5,000 92 228 -64
2020-01-19 02:09:53 GMT 41.874249 -87.707497 5,000 92 227 -64
2020-01-19 02:09:50 GMT 41.874344 -87.711159 5,000 92 227 64
2020-01-19 02:09:47 GMT 41.874531 -87.717140 4,975 92 226 0
2020-01-19 02:09:44 GMT 41.874664 -87.721893 4,975 92 226 0
2020-01-19 02:09:41 GMT 41.874802 -87.725266 4,975 92 226 -128
2020-01-19 02:09:35 GMT 41.875259 -87.740311 4,975 92 223 64
2020-01-19 02:09:30 GMT 41.875259 -87.740311 4,975 92 223 0
2020-01-19 02:09:26 GMT 41.875416 -87.745567 4,975 92 221 192
2020-01-19 02:09:23 GMT 41.875507 -87.749466 4,950 92 221 64
2020-01-19 02:09:20 GMT 41.875599 -87.752785 4,950 92 221 128
2020-01-19 02:09:16 GMT 41.875809 -87.760223 4,925 92 222 128
2020-01-19 02:09:13 GMT 41.875946 -87.764091 4,925 92 222 0
2020-01-19 02:09:10 GMT 41.876083 -87.768463 4,925 92 221 192
2020-01-19 02:09:05 GMT 41.876358 -87.775642 4,900 93 222 576
2020-01-19 02:09:02 GMT 41.876495 -87.779579 4,850 93 220 1024
2020-01-19 02:08:59 GMT 41.876633 -87.782257 4,750 94 219 1088
2020-01-19 02:08:54 GMT 41.877090 -87.790436 4,700 94 218 1024
2020-01-19 02:08:51 GMT 41.877228 -87.793121 4,675 94 218 1024
2020-01-19 02:08:48 GMT 41.877457 -87.797493 2,500 93 217 1024
2020-01-19 02:08:45 GMT 41.877693 -87.802605 4,550 93 216 960
2020-01-19 02:08:39 GMT 41.878067 -87.810654 4,475 93 214 896
2020-01-19 02:08:33 GMT 41.878510 -87.817780 4,400 96 213 1216
2020-01-19 02:08:30 GMT 41.878906 -87.821198 4,325 101 213 1280
2020-01-19 02:08:27 GMT 41.879608 -87.825142 4,250 109 217 832
2020-01-19 02:08:22 GMT 41.881512 -87.831352 4,175 120 216 1024
2020-01-19 02:08:17 GMT 41.884277 -87.837006 4,075 128 214 1216
2020-01-19 02:08:14 GMT 41.886566 -87.840622 4,000 132 212 256
2020-01-19 02:08:11 GMT 41.888214 -87.842934 4,000 132 214 1024
2020-01-19 02:08:08 GMT 41.890915 -87.846802 3,950 132 216 1280
2020-01-19 02:08:02 GMT 41.894314 -87.851852 3,850 132 216 960
2020-01-19 02:07:57 GMT 41.897526 -87.856583 3,775 132 214 960
2020-01-19 02:07:52 GMT 41.900620 -87.861160 3,700 131 214 960
2020-01-19 02:07:49 GMT 41.903503 -87.865532 3,650 131 213 704
2020-01-19 02:07:41 GMT 41.908138 -87.872421 3,525 132 213 1344
2020-01-19 02:07:37 GMT 41.911587 -87.877533 3,425 132 211 1216
2020-01-19 02:07:30 GMT 41.915405 -87.883133 3,275 131 208 1472
2020-01-19 02:07:26 GMT 41.918243 -87.887444 3,175 131 207 1600
2020-01-19 02:07:19 GMT 41.923504 -87.895355 3,075 131 206 1728
2020-01-19 02:07:16 GMT 41.924992 -87.897652 2,500 131 206 1536
2020-01-19 02:07:11 GMT 41.927399 -87.901360 2,775 130 204 1344
2020-01-19 02:07:04 GMT 41.931557 -87.907745 2,650 131 206 1920
2020-01-19 02:07:00 GMT 41.935047 -87.913170 2,500 131 205 896
2020-01-19 02:06:55 GMT 41.938202 -87.917969 2,475 131 204 192
2020-01-19 02:06:51 GMT 41.940308 -87.921158 2,425 131 202 512
2020-01-19 02:06:48 GMT 41.941956 -87.923584 2,400 132 202 896
2020-01-19 02:06:44 GMT 41.947151 -87.930740 2,300 137 203 1152
2020-01-19 02:06:41 GMT 41.947151 -87.930740 2,250 139 202 512
2020-01-19 02:06:38 GMT 41.948959 -87.932823 2,225 140 200 896
2020-01-19 02:06:34 GMT 41.951660 -87.935448 2,125 150 195 1280
2020-01-19 02:06:29 GMT 41.960541 -87.940125 1,600 185 175 1280
2020-01-19 02:06:23 GMT 41.960541 -87.940125 1,775 167 187 2560
2020-01-19 02:06:20 GMT 41.963974 -87.940750 1,650 177 182 768
2020-01-19 02:06:17 GMT 41.965988 -87.940811 1,625 182 178 1088
2020-01-19 02:06:13 GMT 41.969147 -87.940254 1,550 270 137 1408
2020-01-19 02:06:09 GMT 41.971825 -87.939102 1,475 204 159 1408
2020-01-19 02:06:02 GMT 41.976334 -87.935692 1,375 222 158 1088
2020-01-19 02:05:59 GMT 41.978386 -87.933167 1,300 229 155 1344
2020-01-19 02:05:52 GMT 41.981598 -87.928017 1,150 241 150 2240
2020-01-19 02:05:48 GMT 41.982761 -87.925247 1,075 246 147 1536
2020-01-19 02:05:38 GMT 41.983929 -87.916687 850 270 137 1408
2020-01-19 02:05:31 GMT 41.983929 -87.910362 700 271 131 832
2020-01-19 02:05:24 GMT 41.983929 -87.904869 700 270 129 -320
2020-01-19 02:05:19 GMT 41.983932 -87.901802 700 270 129 -320
2020-01-19 02:05:09 GMT 41.983929 -87.893501 700 270 134 384
2020-01-19 02:05:00 GMT 41.983929 -87.885834 775 270 127 -960
2020-01-19 02:04:57 GMT 41.983883 -87.882324 775 270 129 -768
2020-01-19 02:04:46 GMT 41.983929 -87.874718 925 270 127 -832
2020-01-19 02:04:39 GMT 41.983929 -87.868462 1,000 270 125 -896
2020-01-19 02:04:36 GMT 41.983929 -87.866608 1,025 270 125 -896
2020-01-19 02:04:31 GMT 41.983887 -87.862350 1,100 271 127 -832
2020-01-19 02:04:26 GMT 41.983883 -87.856194 1,200 271 130 -1088
2020-01-19 02:04:18 GMT 41.983833 -87.851982 1,250 270 129 -576
2020-01-19 02:04:15 GMT 41.983841 -87.849861 1,300 270 128 -704
2020-01-19 02:04:10 GMT 41.983833 -87.845917 1,350 270 128 128
2020-01-19 02:04:05 GMT 41.983929 -87.841507 1,825 271 129 -1152
2020-01-19 02:04:00 GMT 41.984024 -87.837502 1,475 270 129 -1088
2020-01-19 02:03:56 GMT 41.983974 -87.835052 1,525 272 130 -512
2020-01-19 02:03:53 GMT 41.983932 -87.832321 1,550 271 129 -192
2020-01-19 02:03:49 GMT 41.983929 -87.829308 1,625 270 127 -1216
2020-01-19 02:03:46 GMT 41.983932 -87.826645 1,675 270 128 -576
2020-01-19 02:03:43 GMT 41.983932 -87.825020 1,675 271 127 -768
2020-01-19 02:03:39 GMT 41.983887 -87.821274 1,750 271 125 -896
2020-01-19 02:03:35 GMT 41.983841 -87.818779 1,800 271 124 -704
2020-01-19 02:03:32 GMT 41.983841 -87.815407 1,925 270 125 -640
2020-01-19 02:03:29 GMT 41.983833 -87.813400 1,875 270 125 -1024
2020-01-19 02:03:26 GMT 41.983833 -87.808418 1,925 270 124 -832
2020-01-19 02:03:23 GMT 41.983833 -87.808418 1,950 271 125 -576
2020-01-19 02:03:18 GMT 41.983833 -87.805031 2,000 271 124 -960
2020-01-19 02:03:14 GMT 41.983788 -87.801651 2,150 270 126 -896
2020-01-19 02:03:11 GMT 41.983795 -87.799301 2,100 270 128 -512
2020-01-19 02:03:08 GMT 41.983788 -87.797241 2,225 270 126 -960
2020-01-19 02:03:03 GMT 41.983841 -87.792809 2,200 270 126 -960
2020-01-19 02:02:58 GMT 41.983883 -87.789131 2,275 270 127 -960
2020-01-19 02:02:53 GMT 41.983887 -87.785133 2,350 270 127 -768
2020-01-19 02:02:47 GMT 41.983883 -87.780891 2,375 270 127 -960
2020-01-19 02:02:42 GMT 41.983883 -87.773544 2,475 271 129 -896
2020-01-19 02:02:39 GMT 41.983883 -87.773544 2,525 272 128 -896
2020-01-19 02:02:33 GMT 41.983788 -87.769135 2,600 272 127 -768
2020-01-19 02:02:30 GMT 41.983788 -87.767601 2,625 271 126 -832
2020-01-19 02:02:27 GMT 41.983749 -87.764595 2,675 272 127 -768
2020-01-19 02:02:22 GMT 41.983658 -87.759911 2,750 272 126 -576
2020-01-19 02:02:19 GMT 41.983612 -87.758041 2,875 271 128 -832
2020-01-19 02:02:16 GMT 41.983555 -87.756615 2,800 272 126 -832
2020-01-19 02:02:13 GMT 41.983521 -87.753609 2,875 271 128 -512
2020-01-19 02:02:09 GMT 41.983509 -87.751572 2,875 271 128 -512
2020-01-19 02:02:06 GMT 41.983463 -87.748375 2,950 270 128 -640
2020-01-19 02:02:02 GMT 41.983463 -87.744926 3,000 270 127 -768
2020-01-19 02:01:56 GMT 41.983521 -87.739998 3,075 269 128 -1088
2020-01-19 02:01:51 GMT 41.983612 -87.736504 3,150 268 129 -768
2020-01-19 02:01:48 GMT 41.983692 -87.733749 3,225 269 131 -896
2020-01-19 02:01:45 GMT 41.983742 -87.732094 3,225 269 130 -576
2020-01-19 02:01:39 GMT 41.983833 -87.726913 3,300 269 131 -960
2020-01-19 02:01:34 GMT 41.983974 -87.719826 3,425 269 130 -1088
2020-01-19 02:01:31 GMT 41.983974 -87.719826 3,425 269 130 -1024
2020-01-19 02:01:28 GMT 41.983978 -87.718338 3,450 269 130 -896
2020-01-19 02:01:25 GMT 41.984024 -87.715096 3,500 270 132 -640
2020-01-19 02:01:20 GMT 41.983974 -87.711334 3,550 272 131 -1024
2020-01-19 02:01:17 GMT 41.983929 -87.708076 3,600 273 132 -640
2020-01-19 02:01:14 GMT 41.983883 -87.706795 3,625 273 134 -256
2020-01-19 02:01:10 GMT 41.983795 -87.703918 3,700 272 137 -704
2020-01-19 02:01:07 GMT 41.983742 -87.701363 3,700 272 137 -704
2020-01-19 02:01:04 GMT 41.983658 -87.698112 3,750 273 137 -896
2020-01-19 02:00:58 GMT 41.983555 -87.692871 3,925 272 138 -896
2020-01-19 02:00:54 GMT 41.983509 -87.689423 3,900 271 138 -896
2020-01-19 02:00:47 GMT 41.983463 -87.683609 4,050 270 144 -768
2020-01-19 02:00:43 GMT 41.983509 -87.680542 4,025 270 139 -768
2020-01-19 02:00:38 GMT 41.983555 -87.675629 4,100 269 140 -960
2020-01-19 02:00:35 GMT 41.983646 -87.670769 4,250 269 140 -832
2020-01-19 02:00:29 GMT 41.983692 -87.668343 4,275 269 142 -832
2020-01-19 02:00:26 GMT 41.983742 -87.665154 4,325 270 144 -768
2020-01-19 02:00:23 GMT 41.983795 -87.662163 4,350 270 141 -896
2020-01-19 02:00:18 GMT 41.983795 -87.658974 4,425 270 143 -832
2020-01-19 02:00:15 GMT 41.983795 -87.655792 4,450 270 144 -768
2020-01-19 02:00:12 GMT 41.983795 -87.653297 4,500 270 144 -768
2020-01-19 02:00:06 GMT 41.983795 -87.647552 4,600 270 149 -192
2020-01-19 02:00:02 GMT 41.983704 -87.639191 4,700 272 146 -832
2020-01-19 01:59:55 GMT 41.983658 -87.637070 4,750 272 146 -704
2020-01-19 01:59:52 GMT 41.983612 -87.634506 4,775 272 147 -704
2020-01-19 01:59:44 GMT 41.983475 -87.627579 4,850 270 149 -192
2020-01-19 01:59:41 GMT 41.983463 -87.624779 4,900 271 147 -640
2020-01-19 01:59:37 GMT 41.983414 -87.621521 4,950 271 149 -384
2020-01-19 01:59:34 GMT 41.983368 -87.617821 4,950 271 149 -384
2020-01-19 01:59:31 GMT 41.983337 -87.615028 4,975 270 149 -128
2020-01-19 01:59:25 GMT 41.983368 -87.607086 4,975 270 150 -256
2020-01-19 01:59:22 GMT 41.983368 -87.607086 4,975 269 149 -192
2020-01-19 01:59:15 GMT 41.983509 -87.597763 4,975 270 150 192
2020-01-19 01:59:09 GMT 41.983521 -87.594994 4,975 270 148 0
2020-01-19 01:59:04 GMT 41.983566 -87.590248 4,975 270 147 64
2020-01-19 01:59:01 GMT 41.983555 -87.587540 4,975 270 147 0
2020-01-19 01:58:57 GMT 41.983566 -87.584755 4,975 270 147 0
2020-01-19 01:58:54 GMT 41.983555 -87.581345 4,975 271 146 0
2020-01-19 01:58:49 GMT 41.983475 -87.576019 4,975 272 147 -64
2020-01-19 01:58:44 GMT 41.983368 -87.569725 4,975 272 145 -64
2020-01-19 01:58:41 GMT 41.983368 -87.569725 4,975 272 145 256
2020-01-19 01:58:38 GMT 41.983337 -87.567024 4,975 271 146 128
2020-01-19 01:58:32 GMT 41.983276 -87.562508 4,975 271 144 -128
2020-01-19 01:58:29 GMT 41.983276 -87.558929 4,975 271 145 -128
2020-01-19 01:58:23 GMT 41.983231 -87.553177 4,975 271 144 -64
2020-01-19 01:58:20 GMT 41.983246 -87.550858 4,975 271 144 -64
2020-01-19 01:58:17 GMT 41.983200 -87.547615 4,975 270 144 64
2020-01-19 01:58:12 GMT 41.983231 -87.540977 4,975 270 145 64
2020-01-19 01:58:09 GMT 41.983246 -87.538628 4,950 270 146 0
2020-01-19 01:58:06 GMT 41.983246 -87.538628 4,950 270 146 0
2020-01-19 01:58:03 GMT 41.983231 -87.535545 4,975 270 144 -64
2020-01-19 01:58:00 GMT 41.983246 -87.530449 4,975 270 143 0
2020-01-19 01:57:53 GMT 41.983246 -87.526138 4,975 270 145 64
2020-01-19 01:57:49 GMT 41.983276 -87.523415 4,975 271 143 128
2020-01-19 01:57:46 GMT 41.983231 -87.519836 4,975 270 144 64
2020-01-19 01:57:41 GMT 41.983246 -87.515404 4,975 270 146 128
2020-01-19 01:57:38 GMT 41.983246 -87.512848 4,975 270 147 0
2020-01-19 01:57:35 GMT 41.983276 -87.510445 4,975 270 149 64
2020-01-19 01:57:31 GMT 41.983292 -87.506912 4,975 270 147 -128
2020-01-19 01:57:28 GMT 41.983276 -87.503487 4,975 270 146 -64
2020-01-19 01:57:25 GMT 41.983276 -87.500931 4,975 271 147 -64
2020-01-19 01:57:20 GMT 41.983276 -87.497292 4,975 271 148 0
2020-01-19 01:57:17 GMT 41.983246 -87.493057 4,975 271 148 128
2020-01-19 01:57:14 GMT 41.983200 -87.491188 4,975 272 146 -64
2020-01-19 01:57:11 GMT 41.983154 -87.488625 4,975 272 146 -128
2020-01-19 01:57:08 GMT 41.983109 -87.485382 4,975 272 146 -64
2020-01-19 01:57:04 GMT 41.983089 -87.481956 4,975 271 147 -64
2020-01-19 01:56:59 GMT 41.983044 -87.478256 4,975 271 149 64
2020-01-19 01:56:55 GMT 41.983017 -87.474770 4,975 271 148 0
2020-01-19 01:56:52 GMT 41.983017 -87.471832 4,975 270 148 64
2020-01-19 01:56:49 GMT 41.982998 -87.468735 4,975 270 147 128
2020-01-19 01:56:46 GMT 41.983063 -87.464844 4,950 270 149 64
2020-01-19 01:56:43 GMT 41.983044 -87.462479 4,975 271 147 -128
2020-01-19 01:56:38 GMT 41.983063 -87.458977 4,975 271 147 -128
2020-01-19 01:56:35 GMT 41.983044 -87.455833 4,975 271 148 0
2020-01-19 01:56:29 GMT 41.982925 -87.449738 4,975 272 152 128
2020-01-19 01:56:26 GMT 41.982857 -87.446892 4,975 274 151 -128
2020-01-19 01:56:22 GMT 41.982716 -87.443123 4,975 274 150 -64
2020-01-19 01:56:19 GMT 41.982559 -87.439995 4,975 274 150 -128
2020-01-19 01:56:14 GMT 41.982376 -87.435875 4,975 273 152 -192
2020-01-19 01:56:10 GMT 41.982300 -87.433029 5,000 272 154 -128
2020-01-19 01:56:07 GMT 41.982250 -87.429970 5,000 271 156 -64
2020-01-19 01:56:04 GMT 41.982250 -87.426834 5,000 269 157 -64
2020-01-19 01:56:01 GMT 41.982285 -87.422768 5,000 269 157 -128
2020-01-19 01:55:58 GMT 41.982391 -87.419807 5,000 267 156 -64
2020-01-19 01:55:55 GMT 41.982513 -87.416901 5,000 266 156 192
2020-01-19 01:55:48 GMT 41.982903 -87.410103 4,975 266 159 256
2020-01-19 01:55:44 GMT 41.983089 -87.406586 4,975 266 159 256
2020-01-19 01:55:40 GMT 41.983337 -87.402420 4,950 267 158 -64
2020-01-19 01:55:34 GMT 41.983601 -87.396370 4,950 268 156 -192
2020-01-19 01:55:27 GMT 41.983704 -87.389565 4,950 272 163 -64
2020-01-19 01:55:23 GMT 41.983704 -87.386375 4,950 271 162 64
2020-01-19 01:55:18 GMT 41.983509 -87.380844 4,975 275 169 -64
2020-01-19 01:55:15 GMT 41.983414 -87.378738 4,975 275 170 -128
2020-01-19 01:55:12 GMT 41.983181 -87.375801 4,975 276 174 64
2020-01-19 01:55:06 GMT 41.982651 -87.368584 4,975 277 181 128
2020-01-19 01:55:02 GMT 41.982250 -87.363411 4,975 277 181 64
2020-01-19 01:54:55 GMT 41.981232 -87.350296 4,975 276 180 192
2020-01-19 01:54:49 GMT 41.981232 -87.350296 4,975 276 180 0
2020-01-19 01:54:45 GMT 41.980957 -87.344933 4,975 269 181 -128
2020-01-19 01:54:42 GMT 41.980900 -87.340668 4,975 270 181 -256
2020-01-19 01:54:37 GMT 41.981140 -87.334564 4,975 263 181 128
2020-01-19 01:54:34 GMT 41.981178 -87.333450 4,975 263 181 128
2020-01-19 01:54:30 GMT 41.983231 -87.322021 4,975 245 186 -64
2020-01-19 01:54:24 GMT 41.984665 -87.318024 4,975 238 192 -64
2020-01-19 01:54:21 GMT 41.984665 -87.318024 4,975 241 190 0
2020-01-19 01:54:15 GMT 41.987549 -87.311974 4,975 234 196 64
2020-01-19 01:54:09 GMT 41.990158 -87.307289 4,975 232 195 320
2020-01-19 01:54:04 GMT 41.993378 -87.301773 4,975 234 192 -64
2020-01-19 01:54:00 GMT 41.996109 -87.297050 4,975 231 193 -256
2020-01-19 01:53:53 GMT 41.999523 -87.292381 4,975 222 195 128
2020-01-19 01:53:50 GMT 42.008057 -87.286125 4,975 201 204 0
2020-01-19 01:53:44 GMT 42.008057 -87.286125 4,975 198 205 128
2020-01-19 01:53:40 GMT 42.010925 -87.285355 4,975 134 230 64
2020-01-19 01:53:37 GMT 42.018768 -87.285500 4,975 173 221 128
2020-01-19 01:53:32 GMT 42.018768 -87.285500 4,975 173 221 0
2020-01-19 01:53:27 GMT 42.028755 -87.287270 4,975 170 219 192
2020-01-19 01:53:23 GMT 42.028755 -87.287270 5,000 172 220 -128
2020-01-19 01:53:20 GMT 42.031815 -87.287750 4,975 172 219 -256
2020-01-19 01:53:13 GMT 42.039047 -87.289185 4,975 159 225 64
2020-01-19 01:53:07 GMT 42.044025 -87.290977 4,975 161 224 0
2020-01-19 01:53:04 GMT 42.048065 -87.293495 4,975 146 229 -192
2020-01-19 01:53:01 GMT 42.049850 -87.294991 4,975 146 229 -192
2020-01-19 01:52:55 GMT 42.054794 -87.300423 4,975 134 230 64
2020-01-19 01:52:50 GMT 42.061707 -87.309784 4,975 134 229 -64
2020-01-19 01:52:46 GMT 42.062462 -87.310776 4,975 134 229 128
2020-01-19 01:52:41 GMT 42.065277 -87.314651 4,975 134 229 0
2020-01-19 01:52:36 GMT 42.068977 -87.319786 4,975 134 231 0
2020-01-19 01:52:32 GMT 42.074844 -87.327766 4,975 134 231 -128
2020-01-19 01:52:24 GMT 42.077866 -87.331886 4,975 134 231 -64
2020-01-19 01:52:18 GMT 42.083313 -87.339249 4,975 134 231 -64
2020-01-19 01:52:15 GMT 42.085144 -87.341743 4,975 134 231 -128
2020-01-19 01:52:10 GMT 42.088902 -87.346863 4,975 135 231 -128
2020-01-19 01:52:07 GMT 42.091461 -87.350357 4,975 135 231 64
2020-01-19 01:52:03 GMT 42.093292 -87.352791 4,975 135 231 0
2020-01-19 01:52:00 GMT 42.096634 -87.357292 4,975 134 231 128
2020-01-19 01:51:56 GMT 42.099060 -87.360535 4,975 134 230 64
2020-01-19 01:51:53 GMT 42.101006 -87.363152 4,975 134 230 192
2020-01-19 01:51:50 GMT 42.103546 -87.366653 4,950 134 231 -64
2020-01-19 01:51:47 GMT 42.106567 -87.370712 4,950 134 231 -128
2020-01-19 01:51:44 GMT 42.108826 -87.373756 4,975 135 231 -128
2020-01-19 01:51:40 GMT 42.111855 -87.377846 4,975 135 231 64
2020-01-19 01:51:36 GMT 42.114880 -87.381866 4,975 135 230 -128
2020-01-19 01:51:29 GMT 42.119888 -87.388565 4,975 134 231 -128
2020-01-19 01:51:23 GMT 42.124283 -87.394455 4,975 135 230 -64
2020-01-19 01:51:18 GMT 42.127914 -87.399307 4,975 135 231 64
2020-01-19 01:51:12 GMT 42.132477 -87.405373 4,975 135 231 128
2020-01-19 01:51:09 GMT 42.135406 -87.409225 4,975 135 231 -64
2020-01-19 01:51:03 GMT 42.139877 -87.415085 4,975 135 231 64
2020-01-19 01:50:57 GMT 42.143833 -87.420319 4,975 135 231 -128
2020-01-19 01:50:52 GMT 42.152161 -87.431442 5,000 135 229 0
2020-01-19 01:50:46 GMT 42.152161 -87.431442 5,000 136 229 192
2020-01-19 01:50:42 GMT 42.156448 -87.436478 4,975 143 228 256
2020-01-19 01:50:37 GMT 42.159714 -87.439690 4,950 148 228 -128
2020-01-19 01:50:34 GMT 42.163525 -87.442741 4,950 150 228 -256
2020-01-19 01:50:30 GMT 42.166306 -87.444740 4,975 152 228 -256
2020-01-19 01:50:26 GMT 42.172302 -87.448990 4,975 152 226 -64
2020-01-19 01:50:23 GMT 42.172302 -87.448990 4,975 152 225 128
2020-01-19 01:50:19 GMT 42.176559 -87.452003 4,975 152 225 128
2020-01-19 01:50:15 GMT 42.180283 -87.454620 4,975 152 225 -64
2020-01-19 01:50:12 GMT 42.182098 -87.455902 4,975 152 225 -192
2020-01-19 01:50:09 GMT 42.185078 -87.458008 4,975 152 224 -64
2020-01-19 01:50:04 GMT 42.189548 -87.461075 4,975 152 224 0
2020-01-19 01:49:59 GMT 42.194138 -87.464279 4,975 152 224 64
2020-01-19 01:49:55 GMT 42.197800 -87.466843 4,975 152 224 -128
2020-01-19 01:49:52 GMT 42.201324 -87.469246 4,975 152 224 -64
2020-01-19 01:49:49 GMT 42.203705 -87.470894 4,975 152 223 64
2020-01-19 01:49:45 GMT 42.207367 -87.473457 4,975 152 223 64
2020-01-19 01:49:42 GMT 42.210297 -87.475517 4,975 152 223 64
2020-01-19 01:49:39 GMT 42.213226 -87.477577 4,975 152 223 -64
2020-01-19 01:49:32 GMT 42.220039 -87.482346 4,975 152 223 64
2020-01-19 01:49:27 GMT 42.224834 -87.485603 4,975 153 224 0
2020-01-19 01:49:24 GMT 42.227814 -87.487640 4,975 153 224 -64
2020-01-19 01:49:20 GMT 42.230988 -87.489815 4,975 153 225 0
2020-01-19 01:49:17 GMT 42.232864 -87.491058 4,975 153 225 -64
2020-01-19 01:49:13 GMT 42.237350 -87.494057 4,975 153 226 -128
2020-01-19 01:49:08 GMT 42.242805 -87.497734 4,975 153 227 128
2020-01-19 01:49:03 GMT 42.247147 -87.500732 4,975 152 228 64
2020-01-19 01:49:00 GMT 42.249802 -87.502548 4,950 152 228 0
2020-01-19 01:48:56 GMT 42.254333 -87.505669 4,975 152 230 -64
2020-01-19 01:48:51 GMT 42.258133 -87.508286 4,975 153 230 -128
2020-01-19 01:48:47 GMT 42.262169 -87.511024 4,975 153 229 -64
2020-01-19 01:48:44 GMT 42.265568 -87.513321 4,975 153 230 0
2020-01-19 01:48:40 GMT 42.268223 -87.515175 4,975 153 230 128
2020-01-19 01:48:37 GMT 42.272038 -87.517731 4,975 153 231 64
2020-01-19 01:48:34 GMT 42.274364 -87.519325 4,975 153 232 0
2020-01-19 01:48:29 GMT 42.279922 -87.523079 4,975 153 233 -64
2020-01-19 01:48:24 GMT 42.284702 -87.526413 4,975 152 233 0
2020-01-19 01:48:21 GMT 42.286655 -87.527695 4,975 152 233 0
2020-01-19 01:48:18 GMT 42.289536 -87.529701 4,975 153 233 -64
2020-01-19 01:48:11 GMT 42.296665 -87.534531 4,975 153 232 64
2020-01-19 01:48:07 GMT 42.300339 -87.537003 4,975 153 232 128
2020-01-19 01:48:02 GMT 42.304962 -87.540062 4,975 153 231 192
2020-01-19 01:47:58 GMT 42.309219 -87.542870 4,975 153 231 -64
2020-01-19 01:47:54 GMT 42.313610 -87.545769 4,975 153 232 -128
2020-01-19 01:47:49 GMT 42.318054 -87.548737 4,975 153 231 64
2020-01-19 01:47:44 GMT 42.321709 -87.551201 4,975 153 230 64
2020-01-19 01:47:41 GMT 42.326065 -87.554169 4,975 153 230 -64
2020-01-19 01:47:35 GMT 42.331997 -87.558159 4,975 153 228 -128
2020-01-19 01:47:32 GMT 42.333298 -87.559036 4,975 153 228 64
2020-01-19 01:47:29 GMT 42.337097 -87.561600 4,975 153 228 64
2020-01-19 01:47:23 GMT 42.343185 -87.565590 4,975 153 227 0
2020-01-19 01:47:17 GMT 42.347305 -87.568398 4,975 153 228 -128
2020-01-19 01:47:13 GMT 42.352436 -87.571831 4,975 153 227 128
2020-01-19 01:47:10 GMT 42.355591 -87.574020 4,975 153 226 0
2020-01-19 01:47:07 GMT 42.356735 -87.574768 4,975 153 227 128
2020-01-19 01:47:04 GMT 42.362411 -87.578575 4,950 153 227 64
2020-01-19 01:46:56 GMT 42.368633 -87.582687 4,950 153 228 -64
2020-01-19 01:46:52 GMT 42.372452 -87.585182 4,950 154 229 -64
2020-01-19 01:46:45 GMT 42.378223 -87.588753 4,975 154 227 -192
2020-01-19 01:46:40 GMT 42.382416 -87.591438 4,975 145 231 0
2020-01-19 01:46:37 GMT 42.386673 -87.594681 4,975 147 230 0
2020-01-19 01:46:34 GMT 42.388233 -87.596100 4,975 143 232 64
2020-01-19 01:46:30 GMT 42.391342 -87.599739 4,975 133 232 64
2020-01-19 01:46:25 GMT 42.395462 -87.607101 5,000 119 227 -64
2020-01-19 01:46:21 GMT 42.397339 -87.612724 5,000 109 224 64
2020-01-19 01:46:14 GMT 42.398613 -87.620628 4,975 95 220 256
2020-01-19 01:46:10 GMT 42.398613 -87.626060 4,975 83 217 -192
2020-01-19 01:46:04 GMT 42.397495 -87.634041 4,975 73 212 0
2020-01-19 01:46:00 GMT 42.396149 -87.639877 4,975 71 211 128
2020-01-19 01:45:52 GMT 42.393997 -87.648361 4,975 71 213 64
2020-01-19 01:45:49 GMT 42.392853 -87.652924 4,975 71 214 0
2020-01-19 01:45:45 GMT 42.391342 -87.658974 4,975 71 218 0
2020-01-19 01:45:41 GMT 42.390003 -87.664322 4,975 71 215 128
2020-01-19 01:45:38 GMT 42.389488 -87.666367 5,000 71 216 -64
2020-01-19 01:45:34 GMT 42.388096 -87.672050 4,975 70 219 0
2020-01-19 01:45:31 GMT 42.387085 -87.675896 4,950 71 218 0
2020-01-19 01:45:28 GMT 42.386093 -87.679779 4,950 70 219 0
2020-01-19 01:45:23 GMT 42.384155 -87.687317 4,950 70 221 -64
2020-01-19 01:45:18 GMT 42.382786 -87.692810 4,950 71 222 -64
2020-01-19 01:45:11 GMT 42.380402 -87.702606 4,950 72 225 0
2020-01-19 01:45:08 GMT 42.379341 -87.707176 4,975 73 225 -64
2020-01-19 01:45:03 GMT 42.377838 -87.713905 5,000 71 225 -64
2020-01-19 01:44:59 GMT 42.376968 -87.717712 5,000 72 225 -320
2020-01-19 01:44:55 GMT 42.375057 -87.724869 5,000 44 212 0
2020-01-19 01:44:52 GMT 42.371292 -87.733635 5,000 54 218 64
2020-01-19 01:44:47 GMT 42.371292 -87.733635 5,000 49 214 64
2020-01-19 01:44:44 GMT 42.369518 -87.736244 5,000 41 211 0
2020-01-19 01:44:40 GMT 42.365982 -87.739876 5,000 29 206 -64
2020-01-19 01:44:36 GMT 42.363140 -87.741989 5,000 20 202 0
2020-01-19 01:44:33 GMT 42.360901 -87.743309 5,000 21 203 64
2020-01-19 01:44:30 GMT 42.357555 -87.745056 5,000 20 202 0
2020-01-19 01:44:27 GMT 42.355270 -87.746239 5,000 20 203 64
2020-01-19 01:44:24 GMT 42.351925 -87.747932 5,000 21 203 0
2020-01-19 01:44:20 GMT 42.348587 -87.749611 5,000 21 203 128
2020-01-19 01:44:17 GMT 42.342957 -87.752609 5,000 21 200 64
2020-01-19 01:44:13 GMT 42.342957 -87.752609 5,000 21 203 0
2020-01-19 01:44:08 GMT 42.335953 -87.756355 5,000 21 203 -64
2020-01-19 01:44:05 GMT 42.335953 -87.756355 5,000 21 203 0
2020-01-19 01:44:02 GMT 42.333160 -87.757851 5,000 21 202 0
2020-01-19 01:43:58 GMT 42.329857 -87.759621 5,000 21 202 -64
2020-01-19 01:43:55 GMT 42.326736 -87.761276 5,000 21 202 -64
2020-01-19 01:43:52 GMT 42.324268 -87.762558 5,025 21 200 -128
2020-01-19 01:43:49 GMT 42.322548 -87.763519 5,025 21 200 0
2020-01-19 01:43:46 GMT 42.318729 -87.765495 5,025 21 200 64
2020-01-19 01:43:40 GMT 42.313889 -87.768051 5,000 21 199 128
2020-01-19 01:43:37 GMT 42.312168 -87.769012 5,000 21 197 64
2020-01-19 01:43:34 GMT 42.307095 -87.771690 5,000 22 194 -64
2020-01-19 01:43:27 GMT 42.303368 -87.773674 5,000 21 193 64
2020-01-19 01:43:24 GMT 42.300716 -87.775139 5,000 21 193 128
2020-01-19 01:43:21 GMT 42.294846 -87.778267 5,000 22 194 -64
2020-01-19 01:43:17 GMT 42.294846 -87.778267 5,000 22 194 0
2020-01-19 01:43:14 GMT 42.290054 -87.780952 5,000 22 192 -64
2020-01-19 01:43:11 GMT 42.290054 -87.780952 5,000 22 192 -128
2020-01-19 01:43:06 GMT 42.283539 -87.784592 5,000 22 192 -64
2020-01-19 01:43:03 GMT 42.280140 -87.786446 5,000 22 193 -64
2020-01-19 01:43:00 GMT 42.280140 -87.786446 5,000 22 193 0
2020-01-19 01:42:56 GMT 42.277313 -87.788063 5,000 22 194 0
2020-01-19 01:42:53 GMT 42.274979 -87.789375 5,000 22 195 64
2020-01-19 01:42:49 GMT 42.271637 -87.791183 5,000 22 195 128
2020-01-19 01:42:46 GMT 42.268826 -87.792770 5,000 22 194 0
2020-01-19 01:42:43 GMT 42.266174 -87.794304 5,000 22 194 -64
2020-01-19 01:42:40 GMT 42.264038 -87.795494 5,000 22 193 0
2020-01-19 01:42:34 GMT 42.259563 -87.798012 5,000 23 185 0
2020-01-19 01:42:30 GMT 42.255432 -87.800301 5,000 22 192 64
2020-01-19 01:42:27 GMT 42.252953 -87.801712 5,000 22 192 128
2020-01-19 01:42:24 GMT 42.251495 -87.802544 5,000 22 192 0
2020-01-19 01:42:21 GMT 42.248062 -87.804520 5,000 23 191 0
2020-01-19 01:42:18 GMT 42.245590 -87.805916 5,000 23 191 -128
2020-01-19 01:42:15 GMT 42.242851 -87.807526 5,000 23 191 0
2020-01-19 01:42:11 GMT 42.239777 -87.809288 5,000 23 190 64
2020-01-19 01:42:07 GMT 42.237312 -87.810654 5,000 23 189 0
2020-01-19 01:42:04 GMT 42.234879 -87.812096 5,000 23 189 0
2020-01-19 01:42:01 GMT 42.232956 -87.813225 5,000 23 188 0
2020-01-19 01:41:58 GMT 42.226418 -87.817169 5,000 24 188 64
2020-01-19 01:41:54 GMT 42.226418 -87.817169 5,000 24 187 64
2020-01-19 01:41:51 GMT 42.223709 -87.818779 5,000 24 187 -64
2020-01-19 01:41:48 GMT 42.222107 -87.819710 5,000 23 187 256
2020-01-19 01:41:45 GMT 42.218948 -87.821648 5,000 23 187 -320
2020-01-19 01:41:42 GMT 42.216640 -87.822983 5,000 23 186 -192
2020-01-19 01:41:39 GMT 42.215149 -87.823898 5,000 23 186 -128
2020-01-19 01:41:36 GMT 42.211945 -87.825768 5,000 23 185 64
2020-01-19 01:41:33 GMT 42.209614 -87.827133 5,000 23 185 0
2020-01-19 01:41:30 GMT 42.207378 -87.828415 5,000 24 183 192
2020-01-19 01:41:27 GMT 42.205563 -87.829498 5,000 23 184 -128
2020-01-19 01:41:24 GMT 42.202351 -87.831352 5,000 23 184 -128
2020-01-19 01:41:20 GMT 42.197525 -87.834198 5,000 24 183 0
2020-01-19 01:41:17 GMT 42.197525 -87.834198 5,000 24 183 -64
2020-01-19 01:41:14 GMT 42.195648 -87.835320 5,000 24 183 128
2020-01-19 01:41:11 GMT 42.192387 -87.837288 5,000 24 183 64
2020-01-19 01:41:07 GMT 42.189316 -87.839142 5,000 24 183 0
2020-01-19 01:41:04 GMT 42.187733 -87.840103 5,000 24 183 0
2020-01-19 01:41:00 GMT 42.184334 -87.842209 5,000 24 183 0
2020-01-19 01:40:56 GMT 42.182007 -87.843681 5,000 24 183 -64
2020-01-19 01:40:53 GMT 42.178574 -87.845802 5,000 24 184 64
2020-01-19 01:40:50 GMT 42.177017 -87.846741 5,000 24 184 -64
2020-01-19 01:40:45 GMT 42.173264 -87.849052 5,000 24 185 -192
2020-01-19 01:40:42 GMT 42.170601 -87.850639 5,025 23 185 -64
2020-01-19 01:40:39 GMT 42.168415 -87.851913 5,025 23 184 64
2020-01-19 01:40:36 GMT 42.165249 -87.853767 5,025 23 184 64
2020-01-19 01:40:33 GMT 42.163666 -87.854729 5,000 23 179 128
2020-01-19 01:40:30 GMT 42.160995 -87.856293 5,000 23 180 128
2020-01-19 01:40:27 GMT 42.158684 -87.857666 5,000 23 179 128
2020-01-19 01:40:24 GMT 42.156097 -87.859161 5,000 23 179 -128
2020-01-19 01:40:21 GMT 42.153797 -87.860542 5,000 24 180 192
2020-01-19 01:40:17 GMT 42.150604 -87.862534 4,975 24 180 -128
2020-01-19 01:40:12 GMT 42.147858 -87.864281 5,000 25 183 -64
2020-01-19 01:40:09 GMT 42.145065 -87.866028 5,000 25 185 -128
2020-01-19 01:40:05 GMT 42.139389 -87.869652 5,000 25 188 64
2020-01-19 01:39:59 GMT 42.136826 -87.871277 5,000 25 191 -128
2020-01-19 01:39:56 GMT 42.134754 -87.872551 5,000 25 192 128
2020-01-19 01:39:53 GMT 42.129456 -87.875954 5,000 25 191 -64
2020-01-19 01:39:50 GMT 42.129456 -87.875954 5,000 25 191 -192
2020-01-19 01:39:46 GMT 42.125931 -87.878143 5,000 24 189 0
2020-01-19 01:39:42 GMT 42.123489 -87.879639 5,000 24 190 0
2020-01-19 01:39:38 GMT 42.120438 -87.881508 5,000 24 188 0
2020-01-19 01:39:35 GMT 42.117718 -87.883148 5,000 24 187 128
2020-01-19 01:39:31 GMT 42.115036 -87.884758 5,000 24 186 192
2020-01-19 01:39:27 GMT 42.111603 -87.886879 5,000 23 183 0
2020-01-19 01:39:24 GMT 42.109085 -87.888313 5,000 24 181 0
2020-01-19 01:39:21 GMT 42.106293 -87.889999 5,000 24 180 64
2020-01-19 01:39:18 GMT 42.104782 -87.890938 5,000 23 179 -64
2020-01-19 01:39:11 GMT 42.095978 -87.896179 5,000 24 183 128
2020-01-19 01:39:07 GMT 42.095978 -87.896179 5,000 24 184 0
2020-01-19 01:39:04 GMT 42.093613 -87.897614 4,975 24 185 -128
2020-01-19 01:39:00 GMT 42.090775 -87.899361 5,000 24 186 -256
2020-01-19 01:38:56 GMT 42.087414 -87.901421 5,000 24 190 0
2020-01-19 01:38:53 GMT 42.085503 -87.902573 5,000 24 191 -64
2020-01-19 01:38:50 GMT 42.081921 -87.904808 5,000 24 191 -128
2020-01-19 01:38:47 GMT 42.080475 -87.905670 5,000 24 191 -64
2020-01-19 01:38:44 GMT 42.078381 -87.906975 5,000 24 191 192
2020-01-19 01:38:41 GMT 42.075451 -87.908768 5,000 24 192 64
2020-01-19 01:38:38 GMT 42.073215 -87.910172 5,000 24 192 -128
2020-01-19 01:38:34 GMT 42.069397 -87.912407 5,000 24 192 -64
2020-01-19 01:38:31 GMT 42.066833 -87.914032 5,000 24 191 192
2020-01-19 01:38:27 GMT 42.063904 -87.915779 5,000 24 190 64
2020-01-19 01:38:24 GMT 42.061764 -87.917007 5,000 24 190 -256
2020-01-19 01:38:21 GMT 42.058552 -87.918922 5,000 24 189 -320
2020-01-19 01:38:18 GMT 42.056316 -87.920326 5,000 24 189 64
2020-01-19 01:38:15 GMT 42.054035 -87.921669 5,025 23 190 -64
2020-01-19 01:38:12 GMT 42.051636 -87.923088 5,000 23 190 -128
2020-01-19 01:38:09 GMT 42.049847 -87.924095 5,025 23 190 -64
2020-01-19 01:38:06 GMT 42.046913 -87.925758 5,025 23 191 128
2020-01-19 01:38:02 GMT 42.044128 -87.927391 5,025 23 192 -64
2020-01-19 01:37:59 GMT 42.041653 -87.928825 5,025 24 190 -64
2020-01-19 01:37:56 GMT 42.039742 -87.930038 5,000 27 188 384
2020-01-19 01:37:53 GMT 42.036903 -87.931953 5,000 30 189 128
2020-01-19 01:37:50 GMT 42.034203 -87.934189 5,000 34 189 -192
2020-01-19 01:37:47 GMT 42.031723 -87.936440 5,000 36 190 -64
2020-01-19 01:37:43 GMT 42.028885 -87.939377 5,000 38 191 0
2020-01-19 01:37:39 GMT 42.026241 -87.942238 5,000 38 194 192
2020-01-19 01:37:36 GMT 42.024799 -87.943703 5,000 38 192 -192
2020-01-19 01:37:33 GMT 42.022007 -87.946709 4,975 38 192 448
2020-01-19 01:37:30 GMT 42.020611 -87.948174 4,975 38 191 512
2020-01-19 01:37:27 GMT 42.018932 -87.950027 4,950 39 190 448
2020-01-19 01:37:24 GMT 42.016342 -87.952858 4,925 39 188 384
2020-01-19 01:37:20 GMT 42.013535 -87.955971 4,900 39 185 704
2020-01-19 01:37:16 GMT 42.010647 -87.959290 4,825 40 185 1152
2020-01-19 01:37:13 GMT 42.009705 -87.960350 4,750 41 187 1216
2020-01-19 01:37:10 GMT 42.007370 -87.963097 4,625 42 188 1344
2020-01-19 01:37:07 GMT 42.005768 -87.964973 4,700 42 189 1152
2020-01-19 01:37:04 GMT 42.002827 -87.968613 4,575 43 186 1152
2020-01-19 01:37:01 GMT 42.001465 -87.970398 4,550 43 181 896
2020-01-19 01:36:57 GMT 41.997662 -87.975197 4,250 31 174 1344
2020-01-19 01:36:51 GMT 41.994495 -87.978455 4,275 270 130 1984
2020-01-19 01:36:48 GMT 41.993500 -87.979202 4,225 25 169 896
2020-01-19 01:36:45 GMT 41.991211 -87.980637 4,200 17 164 1088
2020-01-19 01:36:42 GMT 41.988556 -87.981697 4,125 10 164 1728
2020-01-19 01:36:36 GMT 41.984440 -87.982224 3,975 358 166 1344
2020-01-19 01:36:33 GMT 41.982422 -87.982140 3,900 353 163 1408
2020-01-19 01:36:30 GMT 41.979923 -87.981453 3,800 343 157 1664
2020-01-19 01:36:27 GMT 41.977177 -87.980110 3,700 331 153 1728
2020-01-19 01:36:24 GMT 41.975601 -87.978889 3,650 325 151 1152
2020-01-19 01:36:20 GMT 41.973732 -87.976921 3,600 316 147 1280
2020-01-19 01:36:17 GMT 41.972443 -87.974892 3,500 301 138 1344
2020-01-19 01:36:11 GMT 41.970520 -87.969711 3,175 274 132 1408
2020-01-19 01:36:08 GMT 41.970055 -87.967339 3,225 279 131 1728
2020-01-19 01:36:05 GMT 41.969776 -87.963760 3,150 274 132 1408
2020-01-19 01:35:59 GMT 41.969742 -87.960602 3,000 270 129 1920
2020-01-19 01:35:54 GMT 41.969681 -87.953415 2,800 271 127 2304
2020-01-19 01:35:50 GMT 41.969681 -87.953415 2,725 272 126 1856
2020-01-19 01:35:47 GMT 41.969635 -87.950600 2,575 272 124 1664
2020-01-19 01:35:42 GMT 41.969589 -87.947220 2,500 272 122 1728
2020-01-19 01:35:39 GMT 41.969543 -87.944405 2,400 272 122 1728
2020-01-19 01:35:36 GMT 41.969467 -87.942184 2,325 273 121 1536
2020-01-19 01:35:33 GMT 41.969421 -87.940933 2,275 272 120 1856
2020-01-19 01:35:29 GMT 41.969357 -87.938148 2,225 271 124 2944
2020-01-19 01:35:26 GMT 41.969311 -87.934761 1,975 271 128 3072
2020-01-19 01:35:23 GMT 41.969311 -87.933418 1,875 271 133 3200
2020-01-19 01:35:20 GMT 41.969170 -87.927994 1,625 273 137 3328
2020-01-19 01:35:13 GMT 41.969124 -87.924545 1,350 271 136 2432
2020-01-19 01:35:08 GMT 41.969101 -87.920647 1,125 271 135 2688
2020-01-19 01:35:02 GMT 41.969055 -87.915283 825 271 133 2688
2020-01-19 01:34:49 GMT 41.969028 -87.905571 650 270 104 192
2020-01-19 01:34:40 GMT 41.969055 -87.899826 0 270 76
2020-01-19 01:34:31 GMT 41.969067 -87.896423 0 270 23
2020-01-19 01:34:21 GMT 41.969067 -87.895996 0 180 0
2020-01-19 01:33:43 GMT 41.969635 -87.895576 0 180 8
2020-01-19 01:33:40 GMT 41.969673 -87.895569 0 180 9
2020-01-19 01:33:29 GMT 41.970043 -87.895706 0 137 8
2020-01-19 01:33:21 GMT 41.970242 -87.896088 0 115 8
2020-01-19 01:32:48 GMT 41.970428 -87.897224 0 90 3
2020-01-19 01:32:17 GMT 41.970428 -87.897942 0 90 5
2020-01-19 01:32:06 GMT 41.970428 -87.898224 0 90 6
2020-01-19 01:31:51 GMT 41.970428 -87.898712 0 90 5
2020-01-19 01:31:46 GMT 41.970428 -87.898911 0 90 6
2020-01-19 01:31:26 GMT 41.970428 -87.899399 0 90 3
2020-01-19 01:31:12 GMT 41.970428 -87.899612 0 90 4
2020-01-19 01:31:01 GMT 41.970428 -87.899925 0 90 7
2020-01-19 01:30:51 GMT 41.970428 -87.900360 0 90 9
2020-01-19 01:30:38 GMT 41.970428 -87.901260 0 90 13
2020-01-19 01:30:15 GMT 41.970428 -87.902969 0 90 14
2020-01-19 01:30:09 GMT 41.970428 -87.903435 0 90 13
2020-01-19 01:29:57 GMT 41.970413 -87.904358 0 90 12
2020-01-19 01:29:47 GMT 41.970417 -87.905205 0 90 12
2020-01-19 01:29:36 GMT 41.970417 -87.905968 0 90 15
2020-01-19 01:29:29 GMT 41.970413 -87.906723 0 90 14
2020-01-19 01:29:17 GMT 41.970406 -87.907639 0 90 13
2020-01-19 01:29:08 GMT 41.970413 -87.908432 0 90 13
2020-01-19 01:28:51 GMT 41.970413 -87.909500 0 90 11
2020-01-19 01:28:44 GMT 41.970417 -87.909958 0 90 10
2020-01-19 01:28:36 GMT 41.970440 -87.910393 0 109 9
2020-01-19 01:28:19 GMT 41.970852 -87.911102 0 140 9
2020-01-19 01:27:47 GMT 41.971310 -87.911613 0 140 2
2020-01-19 01:27:41 GMT 41.971321 -87.911621 0 140 3
2020-01-19 01:27:22 GMT 41.971653 -87.912003 0 140 6
2020-01-19 01:26:57 GMT 41.972240 -87.912659 0 140 9
2020-01-19 01:26:38 GMT 41.972847 -87.912964 0 227 6
2020-01-19 01:26:31 GMT 41.972988 -87.912804 0 227 7
2020-01-19 01:26:14 GMT 41.973392 -87.912163 0 230 9
2020-01-19 01:25:49 GMT 41.974113 -87.911179 0 219 9
2020-01-19 01:25:28 GMT 41.974571 -87.910614 0 320 7
2020-01-19 01:25:11 GMT 41.974361 -87.909996 0 320 11
2020-01-19 01:25:03 GMT 41.973988 -87.909584 0 320 12
2020-01-19 01:24:53 GMT 41.973640 -87.909164 0 317 12
2020-01-19 01:24:47 GMT 41.973419 -87.908875 0 317 11
2020-01-19 01:24:28 GMT 41.972778 -87.908012 0 312 11
2020-01-19 01:24:18 GMT 41.972477 -87.907494 0 300 14
2020-01-19 01:24:15 GMT 41.972351 -87.907166 0 292 14
2020-01-19 01:24:04 GMT 41.972218 -87.906532 0 7
2020-01-19 01:23:40 GMT 41.972168 -87.905685 0 5
2020-01-19 01:23:34 GMT 41.972149 -87.905457 0 6
2020-01-19 01:23:23 GMT 41.972134 -87.905121 0 6
2020-01-19 01:23:12 GMT 41.972111 -87.904732 0 7
2020-01-19 01:23:02 GMT 41.972317 -87.904434 0 6
2020-01-19 01:22:47 GMT 41.972710 -87.904419 0 6
2020-01-19 01:22:40 GMT 41.972878 -87.904434 0 5
2020-01-19 01:22:31 GMT 41.973022 -87.904419 0 2
2020-01-19 01:21:59 GMT 41.973232 -87.904419 0 0
2020-01-19 01:21:39 GMT 41.973244 -87.904419 0 0
2020-01-19 01:21:25 GMT 41.973278 -87.904419 0 2
2020-01-19 01:21:18 GMT 41.973347 -87.904419 0 3
2020-01-19 01:21:08 GMT 41.973534 -87.904419 0 5

Making use of Plane Finder data

You are free to use the raw flight data, aircraft information and images provided in this report for your own purposes provided the data is correctly attributed to Plane Finder. We ask that you please credit Plane Finder and link to planefinder.net in close proximity to the content.

Optionally one of the following logos (no smaller then 150x24px) can be used and must link to planefinder.net

Embedding the Plane Finder map

You are welcome to embed the Plane Finder playback map on your website to offer visitors a more interactive experience. We suggest using the following HTML code:

<iframe src="//planefinder.net/data/report/AA4130-N687JS-7700-squawk-2020-01-19/map" width="800" height="600" seamless="seamless"></iframe>

Where our data comes from

Plane Finder has a global network of data feeds and antenna radars that receive data broadcast directly from aircraft. The primary technologies used are ADS-B and MLAT. We also show feeds from the FAA and a FLARM glider feed.

Click here to find out more about the Plane Finder network.

How we collect our data